Hlavní strana
METAR-TAF:

METAR-TAF

Letiště :

Bagdád, Irák

zeměpisná šířka: 33-15-45N, zeměpisná délka: 44-14-04E, výška: 35 m

Aktuální stav počasí

Zpráva byla vytvořena před 1 hodinou a 9 minutami, v 20:00 UTC
Západní vítr 11 kt
Teplota 35°C
Vlhkost vzduchu 20%
Tlak 997 hPa
Viditelnost: 9000 m

METAR: ORBI 172000Z 27011KT 9000 NSC 35/09 Q0997 NOSIG

Čas: 00:09 (21:09 UTC)

Předpověď počasí

Zpráva byla vytvořena před 5 hodinami a 9 minutami, v 16:00 UTC
Předpověď platná od 17 v 18 UTC do 18 v 18 UTC
Severozápadní vítr 12 kt
Viditelnost: 8000 m

TAF: ORBI 171600Z 1718/1818 31012KT 8000 NSC

Stav a předpovědi počasí z více než 4 000 letišť (zprávy METAR a TAF).

Červené a žluté tečky na mapě představují dostupné meteorologické stanice.

Když kurzor umístíte na tečku, zobrazí se název stanice.

Pak kliknutím zobrazíte stav a předpověď počasí.

Chcete-li změnit mapu, kliknutím na zelené tlačítko se znaménkem +mapu přiblížíte, kliknutím na zelené tlačítko se znaménkem – mapu oddálíte a kliknutím na zelené šipky přejdete na sousední mapy.


METAR-TAF: